HADR METAR and TAF | Updated Today

HADR METAR

Aba Tenna Dejazmach Yilma International Airport

Aba Tenna Dejazmach Yilma International Airport (HADR) hasn't published a METAR.
We found the following current weather conditions for Sabīyan from other sources.

Aba Tenna Dejazmach Yilma International Airport (HADR) METAR

  • Weather conditions right now at HADR:
  • Present conditions: Clouds
  • Clouds: Overcast clouds
  • Cloud cover: 90%
  • Wind: 164 at 12kts
  • Temperature: 25.2 celsius
  • Feels like: 24.9 celsius
  • Pressure: 1013mb
  • Humidity: 41%


Useful to know...

HADR TAF

Aba Tenna Dejazmach Yilma International Airport

TAF HADR 250930Z 2512/2618 VRB08KT 9999 SCT075
Observation time: 11:06 hr. ago
Need help? Read our tutorial on how to read TAFs or read the parsed version below.

Parsed version of TAF for Aba Tenna Dejazmach Yilma International Airport (HADR)

  • From 25 May at 12:00 UTC, to day 26 of the month at 18:00 UTC
  • Clouds: Scattered at 2286 meters
  • Visibility: Greater than 10 km
  • Wind: Variable at 8

Airports near HADR

No airports found within 100nm radius.